createdAt,value
2022-11-17T00:00:21.980Z,98703.91
2022-11-17T00:02:51.286Z,98686.20
2022-11-17T00:05:20.612Z,98683.23
2022-11-17T00:07:50.372Z,98684.89
2022-11-17T00:10:19.842Z,98679.30
2022-11-17T00:13:06.926Z,98667.12
2022-11-17T00:15:36.358Z,98659.58
2022-11-17T00:18:23.671Z,98651.53
2022-11-17T00:21:10.346Z,98646.45
2022-11-17T00:23:49.648Z,98629.48
2022-11-17T00:26:20.958Z,98616.22
2022-11-17T00:28:54.553Z,98616.04
2022-11-17T00:31:43.744Z,98629.65
2022-11-17T00:34:18.275Z,98608.86
2022-11-17T00:36:50.089Z,98611.51
2022-11-17T00:39:21.519Z,98620.22
2022-11-17T00:41:51.022Z,98608.27
2022-11-17T00:44:20.348Z,98617.28
2022-11-17T00:46:49.633Z,98607.72
2022-11-17T00:49:24.002Z,98607.91
2022-11-17T00:51:54.594Z,98597.18
2022-11-17T00:54:24.117Z,98600.79
2022-11-17T00:56:53.319Z,98602.47
2022-11-17T00:59:22.916Z,98595.28
2022-11-17T01:01:52.195Z,98593.60
2022-11-17T01:04:21.607Z,98586.69
2022-11-17T01:06:51.343Z,98594.55
2022-11-17T01:09:22.758Z,98586.79
2022-11-17T01:11:53.858Z,98580.53
2022-11-17T01:14:26.306Z,98588.88
2022-11-17T01:16:56.001Z,98586.14
2022-11-17T01:19:25.847Z,98588.28
2022-11-17T01:21:55.212Z,98582.36
2022-11-17T01:24:24.394Z,98585.42
2022-11-17T01:26:53.672Z,98585.88
2022-11-17T01:29:22.931Z,98584.56
2022-11-17T01:31:53.029Z,98568.30
2022-11-17T01:34:22.255Z,98568.76
2022-11-17T01:37:09.339Z,98574.69
2022-11-17T01:39:38.588Z,98569.89
2022-11-17T01:42:17.343Z,98560.26
2022-11-17T01:45:01.363Z,98549.65
2022-11-17T01:47:42.397Z,98558.18
2022-11-17T01:50:32.984Z,98565.06
2022-11-17T01:53:05.582Z,98550.20
2022-11-17T01:55:38.799Z,98543.66
2022-11-17T01:58:09.009Z,98544.36
2022-11-17T02:00:38.220Z,98542.34
2022-11-17T02:03:07.930Z,98532.34
2022-11-17T02:06:04.698Z,98526.93
2022-11-17T02:08:34.725Z,98521.37
2022-11-17T02:11:05.877Z,98516.23
2022-11-17T02:13:36.640Z,98515.37
2022-11-17T02:16:07.278Z,98509.73
2022-11-17T02:18:36.830Z,98504.36
2022-11-17T02:21:28.496Z,98497.33
2022-11-17T02:24:17.203Z,98502.28
2022-11-17T02:27:24.757Z,98498.53
2022-11-17T02:30:05.090Z,98499.66
2022-11-17T02:32:46.258Z,98492.51
2022-11-17T02:35:27.272Z,98485.66
2022-11-17T02:38:02.218Z,98477.51
2022-11-17T02:40:34.442Z,98471.20
2022-11-17T02:43:30.144Z,98472.31
2022-11-17T02:46:18.780Z,98466.63
2022-11-17T02:48:51.308Z,98455.72
2022-11-17T02:51:22.935Z,98455.06
2022-11-17T02:53:55.237Z,98453.67
2022-11-17T02:56:24.696Z,98445.28
2022-11-17T02:58:57.435Z,98447.39
2022-11-17T03:01:35.607Z,98452.53
2022-11-17T03:04:25.008Z,98451.16
2022-11-17T03:07:00.171Z,98445.77
2022-11-17T03:09:47.822Z,98443.80
2022-11-17T03:12:25.719Z,98449.13
2022-11-17T03:15:27.136Z,98437.67
2022-11-17T03:18:11.603Z,98423.25
2022-11-17T03:20:44.048Z,98412.81
2022-11-17T03:23:21.312Z,98411.68
2022-11-17T03:25:54.691Z,98417.69
2022-11-17T03:28:27.019Z,98407.17
2022-11-17T03:30:58.098Z,98413.51
2022-11-17T03:33:29.014Z,98402.35
2022-11-17T03:36:04.576Z,98396.42
2022-11-17T03:38:36.818Z,98393.52
2022-11-17T03:41:07.803Z,98391.27
2022-11-17T03:43:37.937Z,98382.94
2022-11-17T03:46:10.647Z,98379.18
2022-11-17T03:48:45.739Z,98379.11
2022-11-17T03:51:19.865Z,98373.92
2022-11-17T03:53:49.551Z,98370.23
2022-11-17T03:56:27.594Z,98359.27
2022-11-17T03:59:15.421Z,98358.59
2022-11-17T04:01:44.780Z,98355.63
2022-11-17T04:04:16.879Z,98351.01
2022-11-17T04:06:46.376Z,98343.94
2022-11-17T04:09:19.918Z,98337.75
2022-11-17T04:12:04.668Z,98342.99
2022-11-17T04:14:51.836Z,98349.27
2022-11-17T04:17:21.120Z,98340.74
2022-11-17T04:19:50.355Z,98348.25
2022-11-17T04:22:19.932Z,98346.98
2022-11-17T04:24:49.284Z,98346.12
2022-11-17T04:27:36.771Z,98350.25
2022-11-17T04:30:06.910Z,98346.69
2022-11-17T04:32:36.187Z,98349.08
2022-11-17T04:35:06.190Z,98342.99
2022-11-17T04:37:35.725Z,98342.99
2022-11-17T04:40:06.065Z,98336.86
2022-11-17T04:42:35.276Z,98339.35
2022-11-17T04:45:04.865Z,98342.36
2022-11-17T04:47:34.036Z,98327.59
2022-11-17T04:50:03.266Z,98327.59
2022-11-17T04:52:32.441Z,98330.08
2022-11-17T04:55:01.695Z,98333.05
2022-11-17T04:57:30.918Z,98338.80
2022-11-17T05:00:00.193Z,98337.78
2022-11-17T05:02:29.438Z,98333.53
2022-11-17T05:04:58.867Z,98328.72
2022-11-17T05:07:28.135Z,98329.70
2022-11-17T05:09:57.756Z,98328.47
2022-11-17T05:12:45.039Z,98327.07
2022-11-17T05:15:15.979Z,98330.14
2022-11-17T05:17:45.167Z,98335.73
2022-11-17T05:20:16.092Z,98335.27
2022-11-17T05:23:06.768Z,98337.33
2022-11-17T05:25:34.367Z,98336.84
2022-11-17T05:28:03.689Z,98341.96
2022-11-17T05:30:32.966Z,98331.25
2022-11-17T05:33:02.308Z,98337.63
2022-11-17T05:35:31.814Z,98339.47
2022-11-17T05:38:01.026Z,98340.45
2022-11-17T05:40:30.224Z,98341.58
2022-11-17T05:42:59.404Z,98342.78
2022-11-17T05:45:28.694Z,98340.16
2022-11-17T05:47:57.892Z,98340.34
2022-11-17T05:50:27.175Z,98335.72
2022-11-17T05:52:58.071Z,98341.66
2022-11-17T05:55:27.655Z,98343.09
2022-11-17T05:57:59.990Z,98354.55
2022-11-17T06:00:30.359Z,98352.63
2022-11-17T06:03:01.552Z,98350.41
2022-11-17T06:05:31.001Z,98362.13
2022-11-17T06:08:00.183Z,98358.19
2022-11-17T06:10:29.423Z,98361.58
2022-11-17T06:12:58.599Z,98358.95
2022-11-17T06:15:28.442Z,98357.16
2022-11-17T06:18:09.848Z,98359.79
2022-11-17T06:20:42.084Z,98366.66
2022-11-17T06:23:12.437Z,98362.09
2022-11-17T06:25:41.666Z,98358.64
2022-11-17T06:28:13.505Z,98373.67
2022-11-17T06:30:43.865Z,98373.86
2022-11-17T06:33:15.384Z,98365.14
2022-11-17T06:35:45.845Z,98373.29
2022-11-17T06:38:15.066Z,98364.95
2022-11-17T06:40:44.384Z,98375.16
2022-11-17T06:43:13.570Z,98369.34
2022-11-17T06:45:47.343Z,98370.02
2022-11-17T06:48:18.371Z,98375.34
2022-11-17T06:50:49.347Z,98380.08
2022-11-17T06:53:18.557Z,98381.16
2022-11-17T06:55:50.144Z,98394.90
2022-11-17T06:58:19.342Z,98395.42
2022-11-17T07:00:48.770Z,98397.70
2022-11-17T07:03:18.010Z,98395.70
2022-11-17T07:05:47.403Z,98405.75
2022-11-17T07:08:16.647Z,98399.49
2022-11-17T07:10:49.236Z,98413.82
2022-11-17T07:13:16.844Z,98412.02
2022-11-17T07:15:46.316Z,98417.30
2022-11-17T07:18:15.726Z,98422.89
2022-11-17T07:20:45.279Z,98418.43
2022-11-17T07:23:15.093Z,98426.01
2022-11-17T07:25:44.631Z,98422.43
2022-11-17T07:28:14.982Z,98421.30
2022-11-17T07:30:44.264Z,98421.94
2022-11-17T07:33:14.061Z,98424.23
2022-11-17T07:35:43.558Z,98427.87
2022-11-17T07:38:13.108Z,98433.89
2022-11-17T07:40:42.543Z,98428.36
2022-11-17T07:43:11.997Z,98438.37
2022-11-17T07:45:41.285Z,98441.28
2022-11-17T07:48:10.665Z,98445.70
2022-11-17T07:50:41.557Z,98443.94
2022-11-17T07:53:10.934Z,98441.77
2022-11-17T07:55:40.220Z,98443.27
2022-11-17T07:58:09.853Z,98452.09
2022-11-17T08:00:39.140Z,98445.59
2022-11-17T08:03:10.288Z,98449.16
2022-11-17T08:05:43.434Z,98452.09
2022-11-17T08:08:11.039Z,98448.16
2022-11-17T08:10:40.514Z,98451.09
2022-11-17T08:13:11.321Z,98458.02
2022-11-17T08:15:43.656Z,98465.72
2022-11-17T08:18:12.975Z,98470.66
2022-11-17T08:20:42.390Z,98472.98
2022-11-17T08:23:11.690Z,98481.05
2022-11-17T08:25:40.911Z,98483.67
2022-11-17T08:28:10.216Z,98497.94
2022-11-17T08:30:39.636Z,98492.53
2022-11-17T08:33:09.149Z,98496.45
2022-11-17T08:35:38.483Z,98499.44
2022-11-17T08:38:09.529Z,98498.71
2022-11-17T08:40:39.361Z,98506.95
2022-11-17T08:43:09.135Z,98514.67
2022-11-17T08:45:38.473Z,98516.94
2022-11-17T08:48:07.949Z,98523.69
2022-11-17T08:50:37.428Z,98524.34
2022-11-17T08:53:06.826Z,98524.34
2022-11-17T08:55:41.206Z,98529.83
2022-11-17T08:58:10.039Z,98531.94
2022-11-17T09:00:40.752Z,98530.03
2022-11-17T09:03:13.110Z,98533.97
2022-11-17T09:05:45.277Z,98534.97
2022-11-17T09:08:44.874Z,98532.98
2022-11-17T09:10:47.869Z,98538.42
2022-11-17T09:13:18.756Z,98540.23
2022-11-17T09:15:49.454Z,98542.19
2022-11-17T09:18:18.729Z,98539.89
2022-11-17T09:20:48.022Z,98542.84
2022-11-17T09:23:17.250Z,98542.72
2022-11-17T09:25:46.482Z,98554.42
2022-11-17T09:28:15.847Z,98552.48
2022-11-17T09:30:45.298Z,98558.72
2022-11-17T09:33:14.545Z,98562.66
2022-11-17T09:35:43.832Z,98562.66
2022-11-17T09:38:13.291Z,98570.36
2022-11-17T09:40:43.251Z,98555.20
2022-11-17T09:43:21.670Z,98571.12
2022-11-17T09:45:51.098Z,98576.91
2022-11-17T09:48:40.808Z,98568.69
2022-11-17T09:50:56.446Z,98578.41
2022-11-17T09:53:30.677Z,98577.80
2022-11-17T09:56:03.077Z,98590.23
2022-11-17T09:58:35.843Z,98582.04
2022-11-17T10:01:05.523Z,98582.17
2022-11-17T10:03:45.233Z,98591.36
2022-11-17T10:06:15.335Z,98595.12
2022-11-17T10:09:26.108Z,98594.77
2022-11-17T10:11:57.982Z,98597.33
2022-11-17T10:14:29.297Z,98601.77
2022-11-17T10:16:59.651Z,98607.14
2022-11-17T10:19:31.797Z,98610.20
2022-11-17T10:22:07.446Z,98609.07
2022-11-17T10:24:39.356Z,98604.47
2022-11-17T10:27:26.975Z,98616.28
2022-11-17T10:30:17.101Z,98616.95
2022-11-17T10:32:54.900Z,98618.61
2022-11-17T10:35:32.534Z,98618.27
2022-11-17T10:38:07.188Z,98621.05
2022-11-17T10:40:45.551Z,98631.75
2022-11-17T10:43:18.175Z,98634.37
2022-11-17T10:45:47.266Z,98642.85
2022-11-17T10:48:39.209Z,98636.23
2022-11-17T10:51:20.441Z,98649.89
2022-11-17T10:54:04.300Z,98647.69
2022-11-17T10:56:36.827Z,98651.94
2022-11-17T10:59:20.384Z,98663.17
2022-11-17T11:01:51.552Z,98649.36
2022-11-17T11:04:39.998Z,98669.44
2022-11-17T11:07:15.309Z,98662.49
2022-11-17T11:09:50.278Z,98661.55
2022-11-17T11:12:26.065Z,98668.16
2022-11-17T11:14:57.044Z,98657.08
2022-11-17T11:17:28.616Z,98661.27
2022-11-17T11:19:57.933Z,98664.66
2022-11-17T11:22:29.858Z,98660.06
2022-11-17T11:25:20.392Z,98658.91
2022-11-17T11:28:08.097Z,98666.69
2022-11-17T11:30:57.221Z,98663.62
2022-11-17T11:33:41.514Z,98672.82
2022-11-17T11:36:15.376Z,98671.15
2022-11-17T11:38:56.532Z,98679.66
2022-11-17T11:41:28.935Z,98677.02
2022-11-17T11:44:16.682Z,98684.36
2022-11-17T11:46:49.428Z,98685.25
2022-11-17T11:49:41.649Z,98684.47
2022-11-17T11:52:20.061Z,98676.83
2022-11-17T11:55:04.783Z,98680.44
2022-11-17T11:57:41.941Z,98682.05
2022-11-17T12:00:18.452Z,98683.34
2022-11-17T12:02:51.162Z,98681.30
2022-11-17T12:05:21.395Z,98678.31
2022-11-17T12:08:14.771Z,98684.84
2022-11-17T12:10:50.513Z,98688.11
2022-11-17T12:13:21.720Z,98685.25
2022-11-17T12:15:51.044Z,98694.09
2022-11-17T12:18:23.437Z,98692.29
2022-11-17T12:20:55.237Z,98702.14
2022-11-17T12:23:42.751Z,98708.91
2022-11-17T12:26:26.360Z,98722.96
2022-11-17T12:29:25.938Z,98718.55
2022-11-17T12:32:02.981Z,98714.42
2022-11-17T12:34:38.347Z,98720.98
2022-11-17T12:37:19.043Z,98720.27
2022-11-17T12:40:05.675Z,98726.78
2022-11-17T12:42:36.190Z,98725.11
2022-11-17T12:45:10.571Z,98735.50
2022-11-17T12:47:59.163Z,98726.88
2022-11-17T12:50:26.097Z,98733.78
2022-11-17T12:53:13.824Z,98727.91
2022-11-17T12:56:04.813Z,98736.16
2022-11-17T12:58:43.286Z,98729.94
2022-11-17T13:01:21.584Z,98737.83
2022-11-17T13:04:02.997Z,98749.25
2022-11-17T13:06:35.885Z,98751.16
2022-11-17T13:09:09.651Z,98753.73
2022-11-17T13:11:39.074Z,98752.47
2022-11-17T13:14:16.970Z,98756.42
2022-11-17T13:16:52.797Z,98772.31
2022-11-17T13:19:33.859Z,98776.44
2022-11-17T13:22:15.563Z,98778.45
2022-11-17T13:24:47.099Z,98779.77
2022-11-17T13:27:30.391Z,98790.49
2022-11-17T13:30:29.074Z,98795.50
2022-11-17T13:33:00.877Z,98795.58
2022-11-17T13:35:33.123Z,98793.05
2022-11-17T13:38:22.790Z,98799.86
2022-11-17T13:40:53.554Z,98796.20
2022-11-17T13:43:24.284Z,98795.61
2022-11-17T13:45:54.677Z,98798.47
2022-11-17T13:48:44.148Z,98804.20
2022-11-17T13:51:25.336Z,98799.70
2022-11-17T13:54:03.058Z,98807.78
2022-11-17T13:56:38.115Z,98806.33
2022-11-17T13:59:32.188Z,98817.89
2022-11-17T14:02:22.783Z,98810.27
2022-11-17T14:05:15.191Z,98815.45
2022-11-17T14:07:45.487Z,98821.09
2022-11-17T14:10:29.490Z,98830.24
2022-11-17T14:13:07.768Z,98834.16
2022-11-17T14:15:39.595Z,98831.11
2022-11-17T14:18:20.836Z,98832.42
2022-11-17T14:20:50.147Z,98831.56
2022-11-17T14:23:19.783Z,98841.33
2022-11-17T14:25:50.171Z,98840.81
2022-11-17T14:28:22.817Z,98836.96
2022-11-17T14:30:51.894Z,98839.66
2022-11-17T14:33:21.276Z,98839.50
2022-11-17T14:35:53.688Z,98841.45
2022-11-17T14:38:23.343Z,98845.31
2022-11-17T14:40:53.549Z,98851.99
2022-11-17T14:43:23.469Z,98849.48
2022-11-17T14:45:52.684Z,98853.44
2022-11-17T14:48:22.395Z,98862.43
2022-11-17T14:50:59.225Z,98864.95
2022-11-17T14:53:28.578Z,98876.55
2022-11-17T14:55:58.505Z,98878.57
2022-11-17T14:58:27.884Z,98872.17
2022-11-17T15:00:57.207Z,98877.87
2022-11-17T15:03:26.656Z,98885.41
2022-11-17T15:05:55.921Z,98882.78
2022-11-17T15:08:25.462Z,98888.52
2022-11-17T15:10:55.373Z,98894.63
2022-11-17T15:13:24.628Z,98882.91
2022-11-17T15:15:55.488Z,98887.19
2022-11-17T15:18:24.720Z,98893.33
2022-11-17T15:21:08.279Z,98889.56
2022-11-17T15:23:39.148Z,98889.55
2022-11-17T15:26:11.803Z,98890.11
2022-11-17T15:28:40.297Z,98896.07
2022-11-17T15:31:12.049Z,98894.95
2022-11-17T15:33:42.377Z,98904.86
2022-11-17T15:36:14.477Z,98910.03
2022-11-17T15:38:44.069Z,98914.70
2022-11-17T15:41:14.189Z,98912.95
2022-11-17T15:43:45.534Z,98921.28
2022-11-17T15:46:17.329Z,98919.96
2022-11-17T15:48:49.260Z,98925.76
2022-11-17T15:51:20.107Z,98919.18
2022-11-17T15:53:50.907Z,98929.58
2022-11-17T15:56:21.759Z,98939.09
2022-11-17T15:58:54.188Z,98931.44
2022-11-17T16:01:28.539Z,98939.17
2022-11-17T16:04:03.006Z,98941.18
2022-11-17T16:06:33.979Z,98945.02
2022-11-17T16:09:03.275Z,98946.09
2022-11-17T16:11:32.670Z,98950.05
2022-11-17T16:14:02.253Z,98953.29
2022-11-17T16:16:34.616Z,98958.53
2022-11-17T16:19:04.267Z,98963.04
2022-11-17T16:21:33.771Z,98964.00
2022-11-17T16:24:03.587Z,98962.02
2022-11-17T16:26:33.085Z,98966.92
2022-11-17T16:29:04.465Z,98965.78
2022-11-17T16:31:35.793Z,98973.20
2022-11-17T16:34:10.995Z,98975.65
2022-11-17T16:36:42.424Z,98971.54
2022-11-17T16:39:15.402Z,98979.17
2022-11-17T16:41:46.221Z,98975.64
2022-11-17T16:44:18.234Z,98980.68
2022-11-17T16:46:49.948Z,98983.02
2022-11-17T16:49:20.643Z,98989.77
2022-11-17T16:51:52.085Z,98991.17
2022-11-17T16:54:21.472Z,98991.95
2022-11-17T16:56:51.029Z,98991.17
2022-11-17T16:59:20.601Z,98988.81
2022-11-17T17:01:50.088Z,98985.87
2022-11-17T17:04:19.411Z,98996.03
2022-11-17T17:06:48.741Z,98997.22
2022-11-17T17:09:23.210Z,99009.77
2022-11-17T17:11:49.387Z,99006.00
2022-11-17T17:14:20.087Z,99000.61
2022-11-17T17:16:49.423Z,99014.95
2022-11-17T17:19:19.262Z,99023.63
2022-11-17T17:21:48.566Z,99024.77
2022-11-17T17:24:18.015Z,99023.67
2022-11-17T17:26:47.213Z,99026.13
2022-11-17T17:29:17.000Z,99032.43
2022-11-17T17:31:46.426Z,99039.15
2022-11-17T17:34:15.781Z,99040.81
2022-11-17T17:36:45.083Z,99039.02
2022-11-17T17:39:18.539Z,99046.24
2022-11-17T17:41:47.858Z,99055.41
2022-11-17T17:44:19.272Z,99048.05
2022-11-17T17:46:49.226Z,99059.26
2022-11-17T17:49:19.575Z,99058.39
2022-11-17T17:51:48.875Z,99059.74
2022-11-17T17:54:20.727Z,99053.54
2022-11-17T17:56:50.004Z,99060.97
2022-11-17T17:59:19.820Z,99062.75
2022-11-17T18:01:49.832Z,99071.30
2022-11-17T18:04:19.109Z,99074.62
2022-11-17T18:06:48.923Z,99082.34
2022-11-17T18:09:21.502Z,99078.73
2022-11-17T18:11:51.449Z,99085.00
2022-11-17T18:14:23.567Z,99091.43
2022-11-17T18:16:53.628Z,99092.40
2022-11-17T18:19:28.238Z,99092.89
2022-11-17T18:21:54.526Z,99101.58
2022-11-17T18:24:23.731Z,99101.59
2022-11-17T18:26:53.026Z,99101.61
2022-11-17T18:29:22.524Z,99103.72
2022-11-17T18:31:51.850Z,99102.58
2022-11-17T18:34:23.423Z,99101.27
2022-11-17T18:36:55.653Z,99100.95
2022-11-17T18:39:25.450Z,99103.55
2022-11-17T18:41:54.773Z,99105.89
2022-11-17T18:44:24.086Z,99104.38
2022-11-17T18:46:55.961Z,99112.59
2022-11-17T18:49:24.616Z,99114.71
2022-11-17T18:51:54.058Z,99121.45
2022-11-17T18:54:23.671Z,99119.33
2022-11-17T18:56:53.041Z,99125.91
2022-11-17T18:59:22.476Z,99125.25
2022-11-17T19:01:51.799Z,99127.23
2022-11-17T19:04:21.401Z,99129.22
2022-11-17T19:06:51.127Z,99138.73
2022-11-17T19:09:20.631Z,99137.73
2022-11-17T19:11:50.327Z,99134.77
2022-11-17T19:14:19.842Z,99139.05
2022-11-17T19:16:50.772Z,99150.23
2022-11-17T19:19:20.460Z,99144.80
2022-11-17T19:21:50.136Z,99143.16
2022-11-17T19:24:19.532Z,99147.27
2022-11-17T19:26:48.891Z,99147.95
2022-11-17T19:29:18.857Z,99158.81
2022-11-17T19:31:49.439Z,99160.13
2022-11-17T19:34:18.783Z,99165.37
2022-11-17T19:36:48.766Z,99160.13
2022-11-17T19:39:18.440Z,99179.66
2022-11-17T19:41:48.076Z,99175.55
2022-11-17T19:44:17.528Z,99169.18
2022-11-17T19:46:46.972Z,99181.98
2022-11-17T19:49:16.621Z,99182.14
2022-11-17T19:51:46.196Z,99182.47
2022-11-17T19:54:15.638Z,99188.56
2022-11-17T19:56:44.978Z,99195.45
2022-11-17T19:59:16.696Z,99197.59
2022-11-17T20:01:46.231Z,99205.31
2022-11-17T20:04:15.956Z,99199.89
2022-11-17T20:06:45.201Z,99209.40
2022-11-17T20:09:15.796Z,99209.89
2022-11-17T20:11:46.103Z,99213.01
2022-11-17T20:14:18.303Z,99214.98
2022-11-17T20:16:47.576Z,99220.91
2022-11-17T20:19:17.253Z,99223.52
2022-11-17T20:21:47.635Z,99227.42
2022-11-17T20:24:17.084Z,99228.56
2022-11-17T20:26:46.307Z,99234.32
2022-11-17T20:29:16.280Z,99240.54
2022-11-17T20:31:45.643Z,99252.03
2022-11-17T20:34:15.127Z,99250.38
2022-11-17T20:36:44.371Z,99245.80
2022-11-17T20:39:15.871Z,99258.09
2022-11-17T20:41:45.307Z,99254.48
2022-11-17T20:44:26.475Z,99261.20
2022-11-17T20:46:56.875Z,99267.13
2022-11-17T20:49:27.921Z,99273.02
2022-11-17T20:51:57.144Z,99283.20
2022-11-17T20:54:26.691Z,99280.23
2022-11-17T20:56:55.904Z,99289.77
2022-11-17T20:59:25.729Z,99294.38
2022-11-17T21:01:55.448Z,99295.16
2022-11-17T21:04:25.004Z,99298.45
2022-11-17T21:06:54.255Z,99302.23
2022-11-17T21:09:23.546Z,99303.02
2022-11-17T21:11:59.042Z,99306.75
2022-11-17T21:14:30.526Z,99316.91
2022-11-17T21:17:00.674Z,99314.27
2022-11-17T21:19:31.696Z,99321.83
2022-11-17T21:22:01.489Z,99321.42
2022-11-17T21:24:30.762Z,99332.61
2022-11-17T21:27:00.119Z,99325.71
2022-11-17T21:29:29.602Z,99330.44
2022-11-17T21:31:58.983Z,99332.70
2022-11-17T21:34:28.242Z,99333.08
2022-11-17T21:36:57.472Z,99338.47
2022-11-17T21:39:26.886Z,99335.78
2022-11-17T21:41:56.256Z,99342.04
2022-11-17T21:44:25.506Z,99346.13
2022-11-17T21:46:54.740Z,99348.59
2022-11-17T21:49:24.134Z,99343.30
2022-11-17T21:51:53.369Z,99347.39
2022-11-17T21:54:22.595Z,99350.10
2022-11-17T21:56:52.115Z,99355.34
2022-11-17T21:59:21.446Z,99358.42
2022-11-17T22:01:50.912Z,99360.87
2022-11-17T22:04:20.327Z,99363.64
2022-11-17T22:06:49.778Z,99362.59
2022-11-17T22:09:19.573Z,99363.72
2022-11-17T22:11:50.250Z,99368.91
2022-11-17T22:14:20.956Z,99366.57
2022-11-17T22:16:52.991Z,99372.98
2022-11-17T22:19:23.816Z,99375.37
2022-11-17T22:21:54.254Z,99372.04
2022-11-17T22:24:24.088Z,99382.91
2022-11-17T22:26:53.540Z,99380.38
2022-11-17T22:29:23.311Z,99388.25
2022-11-17T22:31:53.038Z,99382.41
2022-11-17T22:34:22.966Z,99389.98
2022-11-17T22:36:52.189Z,99400.08
2022-11-17T22:39:21.740Z,99398.91
2022-11-17T22:41:50.981Z,99401.35
2022-11-17T22:44:22.028Z,99417.38
2022-11-17T22:46:51.284Z,99416.69
2022-11-17T22:49:22.395Z,99416.66
2022-11-17T22:52:03.610Z,99422.55
2022-11-17T22:54:33.383Z,99420.95
2022-11-17T22:57:02.953Z,99418.83
2022-11-17T22:59:32.466Z,99426.05
2022-11-17T23:02:01.705Z,99433.39
2022-11-17T23:04:31.046Z,99436.81
2022-11-17T23:07:00.405Z,99446.05
2022-11-17T23:09:31.072Z,99447.16
2022-11-17T23:12:00.303Z,99451.52
2022-11-17T23:14:29.754Z,99449.16
2022-11-17T23:16:58.992Z,99454.36
2022-11-17T23:19:28.399Z,99455.16
2022-11-17T23:21:57.605Z,99461.83
2022-11-17T23:24:26.952Z,99459.20
2022-11-17T23:26:56.408Z,99466.38
2022-11-17T23:29:25.611Z,99469.29
2022-11-17T23:31:54.912Z,99473.91
2022-11-17T23:34:24.269Z,99475.55
2022-11-17T23:36:53.674Z,99482.68
2022-11-17T23:39:22.872Z,99484.97
2022-11-17T23:41:52.114Z,99491.52
2022-11-17T23:44:21.324Z,99487.81
2022-11-17T23:46:50.560Z,99502.47
2022-11-17T23:49:20.102Z,99497.52
2022-11-17T23:51:49.471Z,99506.00
2022-11-17T23:54:18.701Z,99504.17
2022-11-17T23:56:49.718Z,99506.80
2022-11-17T23:59:19.501Z,99501.48
